sensor_id;sensor_type;location;lat;lon;timestamp;P1;durP1;ratioP1;P2;durP2;ratioP2
11807;SDS011;5961;42.640;23.380;2022-12-10T00:00:23;16.20;;;9.00;;
11807;SDS011;5961;42.640;23.380;2022-12-10T00:02:50;21.17;;;8.47;;
11807;SDS011;5961;42.640;23.380;2022-12-10T00:05:18;23.43;;;9.23;;
11807;SDS011;5961;42.640;23.380;2022-12-10T00:07:45;24.53;;;8.97;;
11807;SDS011;5961;42.640;23.380;2022-12-10T00:10:11;17.70;;;8.20;;
11807;SDS011;5961;42.640;23.380;2022-12-10T00:12:38;20.33;;;8.73;;
11807;SDS011;5961;42.640;23.380;2022-12-10T00:15:05;22.73;;;7.83;;
11807;SDS011;5961;42.640;23.380;2022-12-10T00:17:32;17.70;;;8.07;;
11807;SDS011;5961;42.640;23.380;2022-12-10T00:19:59;17.37;;;8.30;;
11807;SDS011;5961;42.640;23.380;2022-12-10T00:22:27;21.77;;;8.97;;
11807;SDS011;5961;42.640;23.380;2022-12-10T00:24:54;14.83;;;8.53;;
11807;SDS011;5961;42.640;23.380;2022-12-10T00:27:20;18.20;;;8.40;;
11807;SDS011;5961;42.640;23.380;2022-12-10T00:29:47;18.67;;;8.07;;
11807;SDS011;5961;42.640;23.380;2022-12-10T00:32:14;21.47;;;8.50;;
11807;SDS011;5961;42.640;23.380;2022-12-10T00:34:40;14.47;;;7.47;;
11807;SDS011;5961;42.640;23.380;2022-12-10T00:37:07;15.30;;;7.90;;
11807;SDS011;5961;42.640;23.380;2022-12-10T00:39:36;11.63;;;6.93;;
11807;SDS011;5961;42.640;23.380;2022-12-10T00:42:03;13.80;;;7.03;;
11807;SDS011;5961;42.640;23.380;2022-12-10T00:44:30;17.27;;;7.97;;
11807;SDS011;5961;42.640;23.380;2022-12-10T00:46:56;19.60;;;7.10;;
11807;SDS011;5961;42.640;23.380;2022-12-10T00:49:23;15.73;;;7.37;;
11807;SDS011;5961;42.640;23.380;2022-12-10T00:51:50;15.93;;;7.73;;
11807;SDS011;5961;42.640;23.380;2022-12-10T00:54:16;20.87;;;8.47;;
11807;SDS011;5961;42.640;23.380;2022-12-10T00:56:44;17.33;;;8.80;;
11807;SDS011;5961;42.640;23.380;2022-12-10T00:59:12;21.10;;;8.50;;
11807;SDS011;5961;42.640;23.380;2022-12-10T01:01:40;26.10;;;8.40;;
11807;SDS011;5961;42.640;23.380;2022-12-10T01:04:10;18.87;;;8.40;;
11807;SDS011;5961;42.640;23.380;2022-12-10T01:06:40;18.73;;;8.43;;
11807;SDS011;5961;42.640;23.380;2022-12-10T01:09:09;20.87;;;9.13;;
11807;SDS011;5961;42.640;23.380;2022-12-10T01:11:38;17.17;;;8.17;;
11807;SDS011;5961;42.640;23.380;2022-12-10T01:14:09;18.20;;;7.50;;
11807;SDS011;5961;42.640;23.380;2022-12-10T01:16:37;18.63;;;7.97;;
11807;SDS011;5961;42.640;23.380;2022-12-10T01:19:04;15.93;;;8.43;;
11807;SDS011;5961;42.640;23.380;2022-12-10T01:21:31;17.07;;;7.90;;
11807;SDS011;5961;42.640;23.380;2022-12-10T01:23:58;17.80;;;8.97;;
11807;SDS011;5961;42.640;23.380;2022-12-10T01:26:26;17.87;;;7.97;;
11807;SDS011;5961;42.640;23.380;2022-12-10T01:28:54;13.37;;;6.47;;
11807;SDS011;5961;42.640;23.380;2022-12-10T01:31:24;16.83;;;6.87;;
11807;SDS011;5961;42.640;23.380;2022-12-10T01:33:52;14.77;;;7.70;;
11807;SDS011;5961;42.640;23.380;2022-12-10T01:36:19;14.00;;;6.73;;
11807;SDS011;5961;42.640;23.380;2022-12-10T01:38:48;7.67;;;3.63;;
11807;SDS011;5961;42.640;23.380;2022-12-10T01:41:16;11.57;;;6.77;;
11807;SDS011;5961;42.640;23.380;2022-12-10T01:43:48;7.40;;;3.27;;
11807;SDS011;5961;42.640;23.380;2022-12-10T01:46:21;5.47;;;3.00;;
11807;SDS011;5961;42.640;23.380;2022-12-10T01:48:51;5.00;;;3.40;;
11807;SDS011;5961;42.640;23.380;2022-12-10T01:51:19;8.17;;;3.33;;
11807;SDS011;5961;42.640;23.380;2022-12-10T01:53:46;8.83;;;3.27;;
11807;SDS011;5961;42.640;23.380;2022-12-10T01:56:15;8.33;;;3.93;;
11807;SDS011;5961;42.640;23.380;2022-12-10T01:58:42;7.60;;;3.40;;
11807;SDS011;5961;42.640;23.380;2022-12-10T02:01:10;6.20;;;3.30;;
11807;SDS011;5961;42.640;23.380;2022-12-10T02:03:45;8.30;;;3.30;;
11807;SDS011;5961;42.640;23.380;2022-12-10T02:06:31;9.23;;;3.20;;
11807;SDS011;5961;42.640;23.380;2022-12-10T02:09:08;7.43;;;3.00;;
11807;SDS011;5961;42.640;23.380;2022-12-10T02:11:41;7.23;;;3.00;;
11807;SDS011;5961;42.640;23.380;2022-12-10T02:14:13;5.60;;;2.60;;
11807;SDS011;5961;42.640;23.380;2022-12-10T02:16:44;8.37;;;3.40;;
11807;SDS011;5961;42.640;23.380;2022-12-10T02:19:20;15.30;;;6.53;;
11807;SDS011;5961;42.640;23.380;2022-12-10T02:21:52;15.13;;;6.60;;
11807;SDS011;5961;42.640;23.380;2022-12-10T02:24:23;16.23;;;6.47;;
11807;SDS011;5961;42.640;23.380;2022-12-10T02:26:56;13.13;;;6.70;;
11807;SDS011;5961;42.640;23.380;2022-12-10T02:29:29;15.97;;;6.20;;
11807;SDS011;5961;42.640;23.380;2022-12-10T02:32:00;16.07;;;7.10;;
11807;SDS011;5961;42.640;23.380;2022-12-10T02:34:30;15.93;;;7.50;;
11807;SDS011;5961;42.640;23.380;2022-12-10T02:37:03;11.90;;;6.20;;
11807;SDS011;5961;42.640;23.380;2022-12-10T02:39:34;17.10;;;7.07;;
11807;SDS011;5961;42.640;23.380;2022-12-10T02:42:04;12.90;;;6.53;;
11807;SDS011;5961;42.640;23.380;2022-12-10T02:44:35;13.10;;;6.50;;
11807;SDS011;5961;42.640;23.380;2022-12-10T02:47:04;12.30;;;5.13;;
11807;SDS011;5961;42.640;23.380;2022-12-10T02:49:32;7.60;;;4.03;;
11807;SDS011;5961;42.640;23.380;2022-12-10T02:52:05;7.67;;;3.10;;
11807;SDS011;5961;42.640;23.380;2022-12-10T02:54:33;11.90;;;2.80;;
11807;SDS011;5961;42.640;23.380;2022-12-10T02:57:04;7.40;;;3.00;;
11807;SDS011;5961;42.640;23.380;2022-12-10T03:00:06;8.77;;;2.83;;
11807;SDS011;5961;42.640;23.380;2022-12-10T03:02:43;5.37;;;2.77;;
11807;SDS011;5961;42.640;23.380;2022-12-10T03:05:22;7.03;;;2.70;;
11807;SDS011;5961;42.640;23.380;2022-12-10T03:07:57;6.60;;;2.50;;
11807;SDS011;5961;42.640;23.380;2022-12-10T03:10:31;9.07;;;2.70;;
11807;SDS011;5961;42.640;23.380;2022-12-10T03:13:02;5.47;;;2.63;;
11807;SDS011;5961;42.640;23.380;2022-12-10T03:15:34;4.57;;;2.60;;
11807;SDS011;5961;42.640;23.380;2022-12-10T03:18:05;8.23;;;3.00;;
11807;SDS011;5961;42.640;23.380;2022-12-10T03:20:34;7.03;;;4.33;;
11807;SDS011;5961;42.640;23.380;2022-12-10T03:23:04;10.13;;;5.47;;
11807;SDS011;5961;42.640;23.380;2022-12-10T03:25:36;11.40;;;4.93;;
11807;SDS011;5961;42.640;23.380;2022-12-10T03:28:05;6.60;;;3.93;;
11807;SDS011;5961;42.640;23.380;2022-12-10T03:30:35;16.30;;;5.27;;
11807;SDS011;5961;42.640;23.380;2022-12-10T03:33:04;8.30;;;5.10;;
11807;SDS011;5961;42.640;23.380;2022-12-10T03:35:31;11.57;;;5.10;;
11807;SDS011;5961;42.640;23.380;2022-12-10T03:37:58;12.57;;;5.53;;
11807;SDS011;5961;42.640;23.380;2022-12-10T03:40:25;9.03;;;5.07;;
11807;SDS011;5961;42.640;23.380;2022-12-10T03:42:52;11.60;;;4.80;;
11807;SDS011;5961;42.640;23.380;2022-12-10T03:45:19;14.07;;;5.80;;
11807;SDS011;5961;42.640;23.380;2022-12-10T03:47:47;13.70;;;5.53;;
11807;SDS011;5961;42.640;23.380;2022-12-10T03:50:14;12.40;;;5.40;;
11807;SDS011;5961;42.640;23.380;2022-12-10T03:52:41;9.07;;;5.40;;
11807;SDS011;5961;42.640;23.380;2022-12-10T03:55:08;15.00;;;5.57;;
11807;SDS011;5961;42.640;23.380;2022-12-10T03:57:35;13.00;;;5.17;;
11807;SDS011;5961;42.640;23.380;2022-12-10T04:00:03;10.70;;;5.67;;
11807;SDS011;5961;42.640;23.380;2022-12-10T04:02:31;13.13;;;4.83;;
11807;SDS011;5961;42.640;23.380;2022-12-10T04:04:59;6.87;;;4.60;;
11807;SDS011;5961;42.640;23.380;2022-12-10T04:07:25;6.43;;;4.53;;
11807;SDS011;5961;42.640;23.380;2022-12-10T04:09:52;8.63;;;4.67;;
11807;SDS011;5961;42.640;23.380;2022-12-10T04:12:19;10.50;;;5.07;;
11807;SDS011;5961;42.640;23.380;2022-12-10T04:14:45;9.90;;;4.83;;
11807;SDS011;5961;42.640;23.380;2022-12-10T04:17:31;12.77;;;4.80;;
11807;SDS011;5961;42.640;23.380;2022-12-10T04:19:59;12.47;;;5.33;;
11807;SDS011;5961;42.640;23.380;2022-12-10T04:22:26;10.13;;;4.70;;
11807;SDS011;5961;42.640;23.380;2022-12-10T04:25:21;7.13;;;3.97;;
11807;SDS011;5961;42.640;23.380;2022-12-10T04:28:05;7.90;;;3.73;;
11807;SDS011;5961;42.640;23.380;2022-12-10T04:30:32;11.10;;;4.40;;
11807;SDS011;5961;42.640;23.380;2022-12-10T04:32:59;10.50;;;4.80;;
11807;SDS011;5961;42.640;23.380;2022-12-10T04:35:27;8.20;;;4.23;;
11807;SDS011;5961;42.640;23.380;2022-12-10T04:37:53;9.83;;;4.50;;
11807;SDS011;5961;42.640;23.380;2022-12-10T04:40:20;6.70;;;4.47;;
11807;SDS011;5961;42.640;23.380;2022-12-10T04:42:47;7.93;;;4.83;;
11807;SDS011;5961;42.640;23.380;2022-12-10T04:45:13;11.47;;;5.53;;
11807;SDS011;5961;42.640;23.380;2022-12-10T04:47:40;8.60;;;5.43;;
11807;SDS011;5961;42.640;23.380;2022-12-10T04:50:07;10.47;;;4.90;;
11807;SDS011;5961;42.640;23.380;2022-12-10T04:52:35;10.90;;;5.30;;
11807;SDS011;5961;42.640;23.380;2022-12-10T04:55:02;9.67;;;5.20;;
11807;SDS011;5961;42.640;23.380;2022-12-10T04:57:29;7.67;;;4.90;;
11807;SDS011;5961;42.640;23.380;2022-12-10T04:59:56;12.23;;;5.90;;
11807;SDS011;5961;42.640;23.380;2022-12-10T05:02:23;10.77;;;5.40;;
11807;SDS011;5961;42.640;23.380;2022-12-10T05:04:49;9.80;;;5.60;;
11807;SDS011;5961;42.640;23.380;2022-12-10T05:07:16;13.23;;;6.23;;
11807;SDS011;5961;42.640;23.380;2022-12-10T05:09:44;13.83;;;6.37;;
11807;SDS011;5961;42.640;23.380;2022-12-10T05:12:11;10.93;;;6.80;;
11807;SDS011;5961;42.640;23.380;2022-12-10T05:14:38;10.93;;;6.43;;
11807;SDS011;5961;42.640;23.380;2022-12-10T05:17:05;13.33;;;6.70;;
11807;SDS011;5961;42.640;23.380;2022-12-10T05:19:32;10.60;;;5.73;;
11807;SDS011;5961;42.640;23.380;2022-12-10T05:21:59;12.83;;;5.30;;
11807;SDS011;5961;42.640;23.380;2022-12-10T05:24:43;12.57;;;5.70;;
11807;SDS011;5961;42.640;23.380;2022-12-10T05:27:11;13.27;;;5.90;;
11807;SDS011;5961;42.640;23.380;2022-12-10T05:29:37;9.03;;;6.03;;
11807;SDS011;5961;42.640;23.380;2022-12-10T05:32:04;11.23;;;5.53;;
11807;SDS011;5961;42.640;23.380;2022-12-10T05:34:31;7.63;;;5.07;;
11807;SDS011;5961;42.640;23.380;2022-12-10T05:36:58;11.33;;;5.50;;
11807;SDS011;5961;42.640;23.380;2022-12-10T05:39:25;11.17;;;7.10;;
11807;SDS011;5961;42.640;23.380;2022-12-10T05:41:53;9.33;;;5.90;;
11807;SDS011;5961;42.640;23.380;2022-12-10T05:44:19;11.47;;;5.83;;
11807;SDS011;5961;42.640;23.380;2022-12-10T05:46:46;14.37;;;6.60;;
11807;SDS011;5961;42.640;23.380;2022-12-10T05:49:13;7.83;;;5.63;;
11807;SDS011;5961;42.640;23.380;2022-12-10T05:51:39;11.97;;;5.90;;
11807;SDS011;5961;42.640;23.380;2022-12-10T05:54:06;12.20;;;5.87;;
11807;SDS011;5961;42.640;23.380;2022-12-10T05:56:34;10.10;;;5.97;;
11807;SDS011;5961;42.640;23.380;2022-12-10T05:59:02;12.60;;;6.93;;
11807;SDS011;5961;42.640;23.380;2022-12-10T06:01:30;13.27;;;6.10;;
11807;SDS011;5961;42.640;23.380;2022-12-10T06:03:59;9.00;;;6.10;;
11807;SDS011;5961;42.640;23.380;2022-12-10T06:06:27;12.87;;;7.77;;
11807;SDS011;5961;42.640;23.380;2022-12-10T06:08:55;19.10;;;9.30;;
11807;SDS011;5961;42.640;23.380;2022-12-10T06:11:22;14.20;;;8.40;;
11807;SDS011;5961;42.640;23.380;2022-12-10T06:13:49;14.87;;;8.00;;
11807;SDS011;5961;42.640;23.380;2022-12-10T06:16:17;11.33;;;6.30;;
11807;SDS011;5961;42.640;23.380;2022-12-10T06:18:44;12.93;;;6.20;;
11807;SDS011;5961;42.640;23.380;2022-12-10T06:21:11;18.37;;;8.13;;
11807;SDS011;5961;42.640;23.380;2022-12-10T06:23:40;10.47;;;7.17;;
11807;SDS011;5961;42.640;23.380;2022-12-10T06:26:07;12.30;;;6.80;;
11807;SDS011;5961;42.640;23.380;2022-12-10T06:28:35;14.70;;;6.70;;
11807;SDS011;5961;42.640;23.380;2022-12-10T06:31:02;13.90;;;7.17;;
11807;SDS011;5961;42.640;23.380;2022-12-10T06:33:30;14.80;;;7.10;;
11807;SDS011;5961;42.640;23.380;2022-12-10T06:35:57;11.40;;;7.60;;
11807;SDS011;5961;42.640;23.380;2022-12-10T06:38:24;16.17;;;7.50;;
11807;SDS011;5961;42.640;23.380;2022-12-10T06:40:51;16.97;;;7.30;;
11807;SDS011;5961;42.640;23.380;2022-12-10T06:43:18;12.07;;;7.07;;
11807;SDS011;5961;42.640;23.380;2022-12-10T06:45:45;19.27;;;7.77;;
11807;SDS011;5961;42.640;23.380;2022-12-10T06:48:11;14.53;;;8.00;;
11807;SDS011;5961;42.640;23.380;2022-12-10T06:50:39;25.03;;;14.70;;
11807;SDS011;5961;42.640;23.380;2022-12-10T06:53:07;26.47;;;16.63;;
11807;SDS011;5961;42.640;23.380;2022-12-10T06:55:35;23.00;;;13.63;;
11807;SDS011;5961;42.640;23.380;2022-12-10T06:58:03;14.43;;;8.37;;
11807;SDS011;5961;42.640;23.380;2022-12-10T07:00:30;11.30;;;7.40;;
11807;SDS011;5961;42.640;23.380;2022-12-10T07:02:56;15.33;;;7.43;;
11807;SDS011;5961;42.640;23.380;2022-12-10T07:05:23;14.60;;;7.63;;
11807;SDS011;5961;42.640;23.380;2022-12-10T07:07:51;13.73;;;8.43;;
11807;SDS011;5961;42.640;23.380;2022-12-10T07:10:18;18.17;;;8.43;;
11807;SDS011;5961;42.640;23.380;2022-12-10T07:12:44;13.03;;;8.70;;
11807;SDS011;5961;42.640;23.380;2022-12-10T07:15:11;14.70;;;9.17;;
11807;SDS011;5961;42.640;23.380;2022-12-10T07:17:38;14.70;;;8.50;;
11807;SDS011;5961;42.640;23.380;2022-12-10T07:20:05;17.17;;;8.93;;
11807;SDS011;5961;42.640;23.380;2022-12-10T07:22:32;16.67;;;8.50;;
11807;SDS011;5961;42.640;23.380;2022-12-10T07:25:00;19.50;;;9.23;;
11807;SDS011;5961;42.640;23.380;2022-12-10T07:27:28;14.80;;;8.77;;
11807;SDS011;5961;42.640;23.380;2022-12-10T07:29:56;18.70;;;10.27;;
11807;SDS011;5961;42.640;23.380;2022-12-10T07:32:22;21.00;;;8.87;;
11807;SDS011;5961;42.640;23.380;2022-12-10T07:34:49;13.27;;;7.93;;
11807;SDS011;5961;42.640;23.380;2022-12-10T07:37:16;16.90;;;8.27;;
11807;SDS011;5961;42.640;23.380;2022-12-10T07:39:43;13.87;;;8.80;;
11807;SDS011;5961;42.640;23.380;2022-12-10T07:42:11;14.37;;;8.40;;
11807;SDS011;5961;42.640;23.380;2022-12-10T07:44:38;14.10;;;9.20;;
11807;SDS011;5961;42.640;23.380;2022-12-10T07:47:05;16.43;;;8.90;;
11807;SDS011;5961;42.640;23.380;2022-12-10T07:49:31;18.07;;;10.00;;
11807;SDS011;5961;42.640;23.380;2022-12-10T07:51:59;16.13;;;8.83;;
11807;SDS011;5961;42.640;23.380;2022-12-10T07:54:25;19.73;;;10.13;;
11807;SDS011;5961;42.640;23.380;2022-12-10T07:56:52;15.63;;;8.43;;
11807;SDS011;5961;42.640;23.380;2022-12-10T07:59:20;13.80;;;8.40;;
11807;SDS011;5961;42.640;23.380;2022-12-10T08:01:47;17.00;;;9.50;;
11807;SDS011;5961;42.640;23.380;2022-12-10T08:04:14;17.23;;;8.97;;
11807;SDS011;5961;42.640;23.380;2022-12-10T08:06:41;15.33;;;8.20;;
11807;SDS011;5961;42.640;23.380;2022-12-10T08:09:08;12.60;;;8.07;;
11807;SDS011;5961;42.640;23.380;2022-12-10T08:11:35;14.53;;;8.53;;
11807;SDS011;5961;42.640;23.380;2022-12-10T08:14:02;21.53;;;10.27;;
11807;SDS011;5961;42.640;23.380;2022-12-10T08:16:33;13.23;;;8.57;;
11807;SDS011;5961;42.640;23.380;2022-12-10T08:19:00;17.07;;;9.33;;
11807;SDS011;5961;42.640;23.380;2022-12-10T08:21:27;18.93;;;9.40;;
11807;SDS011;5961;42.640;23.380;2022-12-10T08:23:55;14.13;;;8.23;;
11807;SDS011;5961;42.640;23.380;2022-12-10T08:26:23;18.50;;;9.27;;
11807;SDS011;5961;42.640;23.380;2022-12-10T08:28:51;18.87;;;9.83;;
11807;SDS011;5961;42.640;23.380;2022-12-10T08:31:18;16.07;;;9.20;;
11807;SDS011;5961;42.640;23.380;2022-12-10T08:33:47;24.67;;;19.73;;
11807;SDS011;5961;42.640;23.380;2022-12-10T08:36:15;27.70;;;18.60;;
11807;SDS011;5961;42.640;23.380;2022-12-10T08:38:43;24.47;;;16.63;;
11807;SDS011;5961;42.640;23.380;2022-12-10T08:41:11;16.93;;;11.67;;
11807;SDS011;5961;42.640;23.380;2022-12-10T08:43:39;18.17;;;11.87;;
11807;SDS011;5961;42.640;23.380;2022-12-10T08:46:06;21.23;;;12.23;;
11807;SDS011;5961;42.640;23.380;2022-12-10T08:48:33;24.00;;;14.17;;
11807;SDS011;5961;42.640;23.380;2022-12-10T08:51:02;22.60;;;13.70;;
11807;SDS011;5961;42.640;23.380;2022-12-10T08:53:29;23.47;;;13.83;;
11807;SDS011;5961;42.640;23.380;2022-12-10T08:55:55;20.67;;;13.73;;
11807;SDS011;5961;42.640;23.380;2022-12-10T08:58:22;20.00;;;11.13;;
11807;SDS011;5961;42.640;23.380;2022-12-10T09:00:49;19.57;;;10.90;;
11807;SDS011;5961;42.640;23.380;2022-12-10T09:03:16;19.23;;;11.73;;
11807;SDS011;5961;42.640;23.380;2022-12-10T09:05:43;18.10;;;11.67;;
11807;SDS011;5961;42.640;23.380;2022-12-10T09:08:11;19.63;;;11.30;;
11807;SDS011;5961;42.640;23.380;2022-12-10T09:10:38;22.10;;;12.07;;
11807;SDS011;5961;42.640;23.380;2022-12-10T09:13:06;19.23;;;12.30;;
11807;SDS011;5961;42.640;23.380;2022-12-10T09:15:33;22.67;;;11.77;;
11807;SDS011;5961;42.640;23.380;2022-12-10T09:18:00;16.47;;;11.13;;
11807;SDS011;5961;42.640;23.380;2022-12-10T09:20:27;21.33;;;11.43;;
11807;SDS011;5961;42.640;23.380;2022-12-10T09:22:53;21.13;;;11.83;;
11807;SDS011;5961;42.640;23.380;2022-12-10T09:25:21;20.10;;;12.17;;
11807;SDS011;5961;42.640;23.380;2022-12-10T09:27:48;18.73;;;11.90;;
11807;SDS011;5961;42.640;23.380;2022-12-10T09:30:15;21.13;;;13.07;;
11807;SDS011;5961;42.640;23.380;2022-12-10T09:32:42;22.60;;;13.33;;
11807;SDS011;5961;42.640;23.380;2022-12-10T09:35:10;20.83;;;12.13;;
11807;SDS011;5961;42.640;23.380;2022-12-10T09:37:37;17.87;;;12.50;;
11807;SDS011;5961;42.640;23.380;2022-12-10T09:40:04;22.13;;;13.37;;
11807;SDS011;5961;42.640;23.380;2022-12-10T09:42:36;22.30;;;14.00;;
11807;SDS011;5961;42.640;23.380;2022-12-10T09:45:14;23.73;;;13.50;;
11807;SDS011;5961;42.640;23.380;2022-12-10T09:47:48;22.33;;;13.73;;
11807;SDS011;5961;42.640;23.380;2022-12-10T09:50:26;20.27;;;12.60;;
11807;SDS011;5961;42.640;23.380;2022-12-10T09:52:57;18.80;;;12.57;;
11807;SDS011;5961;42.640;23.380;2022-12-10T09:55:28;21.93;;;12.40;;
11807;SDS011;5961;42.640;23.380;2022-12-10T09:58:01;20.80;;;12.83;;
11807;SDS011;5961;42.640;23.380;2022-12-10T10:00:32;22.93;;;13.07;;
11807;SDS011;5961;42.640;23.380;2022-12-10T10:03:02;21.50;;;12.73;;
11807;SDS011;5961;42.640;23.380;2022-12-10T10:05:30;20.47;;;13.37;;
11807;SDS011;5961;42.640;23.380;2022-12-10T10:07:59;18.40;;;12.50;;
11807;SDS011;5961;42.640;23.380;2022-12-10T10:10:29;20.90;;;12.37;;
11807;SDS011;5961;42.640;23.380;2022-12-10T10:12:58;24.83;;;14.53;;
11807;SDS011;5961;42.640;23.380;2022-12-10T10:15:39;21.03;;;12.73;;
11807;SDS011;5961;42.640;23.380;2022-12-10T10:18:09;25.23;;;13.27;;
11807;SDS011;5961;42.640;23.380;2022-12-10T10:20:41;18.53;;;12.70;;
11807;SDS011;5961;42.640;23.380;2022-12-10T10:23:08;22.17;;;12.80;;
11807;SDS011;5961;42.640;23.380;2022-12-10T10:25:38;19.97;;;12.43;;
11807;SDS011;5961;42.640;23.380;2022-12-10T10:28:07;16.57;;;12.23;;
11807;SDS011;5961;42.640;23.380;2022-12-10T10:30:37;20.07;;;13.30;;
11807;SDS011;5961;42.640;23.380;2022-12-10T10:33:09;23.20;;;13.27;;
11807;SDS011;5961;42.640;23.380;2022-12-10T10:35:41;20.13;;;12.00;;
11807;SDS011;5961;42.640;23.380;2022-12-10T10:38:13;21.17;;;13.30;;
11807;SDS011;5961;42.640;23.380;2022-12-10T10:40:44;20.50;;;13.00;;
11807;SDS011;5961;42.640;23.380;2022-12-10T10:43:18;21.63;;;12.97;;
11807;SDS011;5961;42.640;23.380;2022-12-10T10:45:51;22.27;;;12.30;;
11807;SDS011;5961;42.640;23.380;2022-12-10T10:48:21;20.03;;;12.60;;
11807;SDS011;5961;42.640;23.380;2022-12-10T10:50:50;21.47;;;13.20;;
11807;SDS011;5961;42.640;23.380;2022-12-10T10:53:23;16.47;;;10.73;;
11807;SDS011;5961;42.640;23.380;2022-12-10T10:55:53;19.27;;;11.13;;
11807;SDS011;5961;42.640;23.380;2022-12-10T10:58:23;12.93;;;9.07;;
11807;SDS011;5961;42.640;23.380;2022-12-10T11:00:55;16.17;;;10.60;;
11807;SDS011;5961;42.640;23.380;2022-12-10T11:03:24;16.37;;;11.07;;
11807;SDS011;5961;42.640;23.380;2022-12-10T11:05:51;17.30;;;11.77;;
11807;SDS011;5961;42.640;23.380;2022-12-10T11:08:20;19.20;;;11.30;;
11807;SDS011;5961;42.640;23.380;2022-12-10T11:10:47;18.87;;;12.30;;
11807;SDS011;5961;42.640;23.380;2022-12-10T11:13:19;15.27;;;10.57;;
11807;SDS011;5961;42.640;23.380;2022-12-10T11:16:02;17.93;;;11.43;;
11807;SDS011;5961;42.640;23.380;2022-12-10T11:18:38;21.37;;;11.97;;
11807;SDS011;5961;42.640;23.380;2022-12-10T11:21:16;14.73;;;11.30;;
11807;SDS011;5961;42.640;23.380;2022-12-10T11:23:47;18.97;;;12.00;;
11807;SDS011;5961;42.640;23.380;2022-12-10T11:26:22;16.77;;;9.97;;
11807;SDS011;5961;42.640;23.380;2022-12-10T11:29:13;16.00;;;9.80;;
11807;SDS011;5961;42.640;23.380;2022-12-10T11:31:53;16.17;;;9.90;;
11807;SDS011;5961;42.640;23.380;2022-12-10T11:34:30;15.90;;;8.90;;
11807;SDS011;5961;42.640;23.380;2022-12-10T11:37:09;12.97;;;7.70;;
11807;SDS011;5961;42.640;23.380;2022-12-10T11:39:49;14.37;;;9.17;;
11807;SDS011;5961;42.640;23.380;2022-12-10T11:42:25;17.13;;;10.33;;
11807;SDS011;5961;42.640;23.380;2022-12-10T11:45:02;18.10;;;11.37;;
11807;SDS011;5961;42.640;23.380;2022-12-10T11:47:37;15.00;;;10.90;;
11807;SDS011;5961;42.640;23.380;2022-12-10T11:50:15;14.83;;;9.30;;
11807;SDS011;5961;42.640;23.380;2022-12-10T11:52:54;15.40;;;9.90;;
11807;SDS011;5961;42.640;23.380;2022-12-10T11:55:32;13.63;;;9.77;;
11807;SDS011;5961;42.640;23.380;2022-12-10T11:58:11;23.47;;;10.77;;
11807;SDS011;5961;42.640;23.380;2022-12-10T12:00:56;15.33;;;10.23;;
11807;SDS011;5961;42.640;23.380;2022-12-10T12:03:37;10.77;;;8.10;;
11807;SDS011;5961;42.640;23.380;2022-12-10T12:06:26;12.73;;;8.37;;
11807;SDS011;5961;42.640;23.380;2022-12-10T12:09:09;10.73;;;6.87;;
11807;SDS011;5961;42.640;23.380;2022-12-10T12:11:50;12.40;;;7.43;;
11807;SDS011;5961;42.640;23.380;2022-12-10T12:14:34;16.63;;;9.53;;
11807;SDS011;5961;42.640;23.380;2022-12-10T12:17:09;20.87;;;9.07;;
11807;SDS011;5961;42.640;23.380;2022-12-10T12:19:39;16.93;;;7.77;;
11807;SDS011;5961;42.640;23.380;2022-12-10T12:22:13;12.97;;;7.63;;
11807;SDS011;5961;42.640;23.380;2022-12-10T12:24:42;17.23;;;8.70;;
11807;SDS011;5961;42.640;23.380;2022-12-10T12:27:14;14.53;;;7.17;;
11807;SDS011;5961;42.640;23.380;2022-12-10T12:29:51;14.40;;;7.80;;
11807;SDS011;5961;42.640;23.380;2022-12-10T12:32:27;15.30;;;7.87;;
11807;SDS011;5961;42.640;23.380;2022-12-10T12:35:01;15.67;;;7.60;;
11807;SDS011;5961;42.640;23.380;2022-12-10T12:37:32;13.07;;;7.93;;
11807;SDS011;5961;42.640;23.380;2022-12-10T12:40:03;16.83;;;7.90;;
11807;SDS011;5961;42.640;23.380;2022-12-10T12:42:40;12.30;;;7.07;;
11807;SDS011;5961;42.640;23.380;2022-12-10T12:45:12;15.97;;;7.47;;
11807;SDS011;5961;42.640;23.380;2022-12-10T12:47:43;13.70;;;6.60;;
11807;SDS011;5961;42.640;23.380;2022-12-10T12:50:26;11.40;;;5.83;;
11807;SDS011;5961;42.640;23.380;2022-12-10T12:53:00;11.03;;;6.63;;
11807;SDS011;5961;42.640;23.380;2022-12-10T12:55:31;11.27;;;5.77;;
11807;SDS011;5961;42.640;23.380;2022-12-10T12:58:19;11.80;;;5.93;;
11807;SDS011;5961;42.640;23.380;2022-12-10T13:00:53;8.40;;;5.40;;
11807;SDS011;5961;42.640;23.380;2022-12-10T13:03:32;10.67;;;5.47;;
11807;SDS011;5961;42.640;23.380;2022-12-10T13:06:13;15.17;;;6.40;;
11807;SDS011;5961;42.640;23.380;2022-12-10T13:08:43;13.30;;;6.67;;
11807;SDS011;5961;42.640;23.380;2022-12-10T13:11:30;11.57;;;5.60;;
11807;SDS011;5961;42.640;23.380;2022-12-10T13:17:07;15.20;;;6.27;;
11807;SDS011;5961;42.640;23.380;2022-12-10T13:19:50;11.00;;;7.20;;
11807;SDS011;5961;42.640;23.380;2022-12-10T13:25:20;14.20;;;8.00;;
11807;SDS011;5961;42.640;23.380;2022-12-10T13:28:16;17.53;;;8.60;;
11807;SDS011;5961;42.640;23.380;2022-12-10T13:33:45;15.37;;;8.80;;
11807;SDS011;5961;42.640;23.380;2022-12-10T13:36:14;15.20;;;9.40;;
11807;SDS011;5961;42.640;23.380;2022-12-10T13:38:55;14.20;;;8.73;;
11807;SDS011;5961;42.640;23.380;2022-12-10T13:41:38;18.67;;;9.10;;
11807;SDS011;5961;42.640;23.380;2022-12-10T13:44:26;15.93;;;8.77;;
11807;SDS011;5961;42.640;23.380;2022-12-10T13:47:03;14.30;;;8.50;;
11807;SDS011;5961;42.640;23.380;2022-12-10T13:49:34;16.50;;;8.67;;
11807;SDS011;5961;42.640;23.380;2022-12-10T13:52:14;12.13;;;7.77;;
11807;SDS011;5961;42.640;23.380;2022-12-10T13:57:56;13.40;;;8.10;;
11807;SDS011;5961;42.640;23.380;2022-12-10T14:00:31;14.50;;;8.17;;
11807;SDS011;5961;42.640;23.380;2022-12-10T14:03:10;15.97;;;7.90;;
11807;SDS011;5961;42.640;23.380;2022-12-10T14:06:06;17.13;;;8.73;;
11807;SDS011;5961;42.640;23.380;2022-12-10T14:08:46;15.57;;;7.77;;
11807;SDS011;5961;42.640;23.380;2022-12-10T14:11:24;16.37;;;8.10;;
11807;SDS011;5961;42.640;23.380;2022-12-10T14:13:56;19.27;;;9.83;;
11807;SDS011;5961;42.640;23.380;2022-12-10T14:16:26;20.00;;;9.30;;
11807;SDS011;5961;42.640;23.380;2022-12-10T14:18:56;15.60;;;9.03;;
11807;SDS011;5961;42.640;23.380;2022-12-10T14:21:25;13.80;;;8.43;;
11807;SDS011;5961;42.640;23.380;2022-12-10T14:23:52;15.40;;;8.20;;
11807;SDS011;5961;42.640;23.380;2022-12-10T14:26:19;15.07;;;8.33;;
11807;SDS011;5961;42.640;23.380;2022-12-10T14:28:49;9.90;;;6.80;;
11807;SDS011;5961;42.640;23.380;2022-12-10T14:31:17;15.10;;;7.63;;
11807;SDS011;5961;42.640;23.380;2022-12-10T14:33:47;11.50;;;7.27;;
11807;SDS011;5961;42.640;23.380;2022-12-10T14:36:16;17.63;;;7.43;;
11807;SDS011;5961;42.640;23.380;2022-12-10T14:38:48;17.63;;;8.67;;
11807;SDS011;5961;42.640;23.380;2022-12-10T14:41:17;13.47;;;8.33;;
11807;SDS011;5961;42.640;23.380;2022-12-10T14:43:46;16.90;;;8.10;;
11807;SDS011;5961;42.640;23.380;2022-12-10T14:46:16;16.47;;;8.20;;
11807;SDS011;5961;42.640;23.380;2022-12-10T14:48:48;15.83;;;7.93;;
11807;SDS011;5961;42.640;23.380;2022-12-10T14:51:18;15.37;;;7.47;;
11807;SDS011;5961;42.640;23.380;2022-12-10T14:53:46;13.00;;;7.37;;
11807;SDS011;5961;42.640;23.380;2022-12-10T14:56:15;17.23;;;8.53;;
11807;SDS011;5961;42.640;23.380;2022-12-10T14:58:49;20.57;;;10.60;;
11807;SDS011;5961;42.640;23.380;2022-12-10T15:01:23;20.10;;;9.60;;
11807;SDS011;5961;42.640;23.380;2022-12-10T15:03:54;15.50;;;8.63;;